createdAt,value
2019-06-26T00:02:12.180Z,9.47
2019-06-26T00:04:39.409Z,9.27
2019-06-26T00:07:06.638Z,8.90
2019-06-26T00:09:33.876Z,10.17
2019-06-26T00:12:01.888Z,10.33
2019-06-26T00:14:29.355Z,9.70
2019-06-26T00:16:56.662Z,10.30
2019-06-26T00:19:23.933Z,9.60
2019-06-26T00:21:51.180Z,10.17
2019-06-26T00:24:18.405Z,11.10
2019-06-26T00:26:45.650Z,9.57
2019-06-26T00:29:12.878Z,9.30
2019-06-26T00:31:40.115Z,10.80
2019-06-26T00:34:07.366Z,10.33
2019-06-26T00:36:34.785Z,10.37
2019-06-26T00:39:02.106Z,10.20
2019-06-26T00:41:29.469Z,11.33
2019-06-26T00:43:56.858Z,10.07
2019-06-26T00:46:24.109Z,10.53
2019-06-26T00:48:51.332Z,11.17
2019-06-26T00:51:18.639Z,11.20
2019-06-26T00:53:45.914Z,11.20
2019-06-26T00:56:13.193Z,10.30
2019-06-26T00:58:40.423Z,10.03
2019-06-26T01:01:07.654Z,9.83
2019-06-26T01:03:35.350Z,10.57
2019-06-26T01:06:02.720Z,9.70
2019-06-26T01:08:29.944Z,9.73
2019-06-26T01:10:57.164Z,9.40
2019-06-26T01:13:24.399Z,10.43
2019-06-26T01:15:51.671Z,9.43
2019-06-26T01:18:19.019Z,9.93
2019-06-26T01:20:46.401Z,10.17
2019-06-26T01:23:13.748Z,10.67
2019-06-26T01:25:41.002Z,10.13
2019-06-26T01:28:08.328Z,10.37
2019-06-26T01:30:35.683Z,10.13
2019-06-26T01:33:02.910Z,9.53
2019-06-26T01:35:30.128Z,9.60
2019-06-26T01:37:57.367Z,9.10
2019-06-26T01:40:24.594Z,11.10
2019-06-26T01:42:51.827Z,10.43
2019-06-26T01:45:19.080Z,9.97
2019-06-26T01:47:46.314Z,10.47
2019-06-26T01:50:14.004Z,10.57
2019-06-26T01:52:41.232Z,9.87
2019-06-26T01:55:08.523Z,10.70
2019-06-26T01:57:35.751Z,9.80
2019-06-26T02:00:03.232Z,9.97
2019-06-26T02:02:31.384Z,9.90
2019-06-26T02:04:58.617Z,10.60
2019-06-26T02:07:25.883Z,11.53
2019-06-26T02:09:53.221Z,10.80
2019-06-26T02:12:20.520Z,9.90
2019-06-26T02:14:47.756Z,11.10
2019-06-26T02:17:14.983Z,10.90
2019-06-26T02:19:42.221Z,10.23
2019-06-26T02:22:09.615Z,10.67
2019-06-26T02:24:36.844Z,9.63
2019-06-26T02:27:04.096Z,10.70
2019-06-26T02:29:31.343Z,11.67
2019-06-26T02:31:58.575Z,10.70
2019-06-26T02:34:25.812Z,11.27
2019-06-26T02:36:53.081Z,11.40
2019-06-26T02:39:20.321Z,10.20
2019-06-26T02:41:47.549Z,10.10
2019-06-26T02:44:14.789Z,10.30
2019-06-26T02:46:42.008Z,11.03
2019-06-26T02:49:09.261Z,11.90
2019-06-26T02:51:36.475Z,10.87
2019-06-26T02:54:04.004Z,10.70
2019-06-26T02:56:31.223Z,10.80
2019-06-26T02:58:58.695Z,11.07
2019-06-26T03:01:25.931Z,10.40
2019-06-26T03:03:53.166Z,9.90
2019-06-26T03:06:20.378Z,12.27
2019-06-26T03:08:47.609Z,10.97
2019-06-26T03:11:14.829Z,11.43
2019-06-26T03:13:42.071Z,10.13
2019-06-26T03:16:09.314Z,10.30
2019-06-26T03:18:36.541Z,9.77
2019-06-26T03:21:03.764Z,11.00
2019-06-26T03:23:30.999Z,10.97
2019-06-26T03:25:58.228Z,11.47
2019-06-26T03:28:25.507Z,10.90
2019-06-26T03:30:52.778Z,10.60
2019-06-26T03:33:20.004Z,10.30
2019-06-26T03:35:47.255Z,11.00
2019-06-26T03:38:14.475Z,11.00
2019-06-26T03:40:41.747Z,10.13
2019-06-26T03:43:09.076Z,9.50
2019-06-26T03:45:36.328Z,10.90
2019-06-26T03:48:03.628Z,12.87
2019-06-26T03:50:30.868Z,10.93
2019-06-26T03:52:58.114Z,11.03
2019-06-26T03:55:25.344Z,9.03
2019-06-26T03:57:52.584Z,11.30
2019-06-26T04:00:21.378Z,12.37
2019-06-26T04:02:48.676Z,11.97
2019-06-26T04:05:15.915Z,11.30
2019-06-26T04:07:43.149Z,12.40
2019-06-26T04:10:10.439Z,9.40
2019-06-26T04:12:37.662Z,10.90
2019-06-26T04:15:06.668Z,10.80
2019-06-26T04:17:33.913Z,12.13
2019-06-26T04:20:02.206Z,9.77
2019-06-26T04:22:30.535Z,10.20
2019-06-26T04:24:57.875Z,10.33
2019-06-26T04:27:25.115Z,10.67
2019-06-26T04:29:52.362Z,10.60
2019-06-26T04:32:19.584Z,11.37
2019-06-26T04:34:46.820Z,10.13
2019-06-26T04:37:14.053Z,10.20
2019-06-26T04:39:41.283Z,10.37
2019-06-26T04:42:08.532Z,10.47
2019-06-26T04:44:35.843Z,10.50
2019-06-26T04:47:03.082Z,10.67
2019-06-26T04:49:30.299Z,10.67
2019-06-26T04:51:57.519Z,10.77
2019-06-26T04:54:24.821Z,10.50
2019-06-26T04:56:52.052Z,10.17
2019-06-26T04:59:19.359Z,10.40
2019-06-26T05:01:46.584Z,9.07
2019-06-26T05:04:13.811Z,9.57
2019-06-26T05:06:41.045Z,10.20
2019-06-26T05:09:08.360Z,11.10
2019-06-26T05:11:35.580Z,9.50
2019-06-26T05:14:02.817Z,10.73
2019-06-26T05:16:30.039Z,12.20
2019-06-26T05:18:57.264Z,11.00
2019-06-26T05:21:24.498Z,10.10
2019-06-26T05:23:51.716Z,10.90
2019-06-26T05:26:19.031Z,9.67
2019-06-26T05:28:46.318Z,10.00
2019-06-26T05:31:13.689Z,10.03
2019-06-26T05:33:40.958Z,10.50
2019-06-26T05:36:08.236Z,10.23
2019-06-26T05:38:35.486Z,9.50
2019-06-26T05:41:02.829Z,9.70
2019-06-26T05:43:30.084Z,11.10
2019-06-26T05:45:57.312Z,10.73
2019-06-26T05:48:24.529Z,11.33
2019-06-26T05:50:51.758Z,9.67
2019-06-26T05:53:18.992Z,9.50
2019-06-26T05:55:46.341Z,9.47
2019-06-26T05:58:13.688Z,10.40
2019-06-26T06:00:41.000Z,9.87
2019-06-26T06:03:08.221Z,9.70
2019-06-26T06:05:35.452Z,9.80
2019-06-26T06:08:02.673Z,8.57
2019-06-26T06:10:29.955Z,9.40
2019-06-26T06:12:57.188Z,9.20
2019-06-26T06:15:24.418Z,10.10
2019-06-26T06:17:51.649Z,9.93
2019-06-26T06:20:20.470Z,9.10
2019-06-26T06:22:47.720Z,8.60
2019-06-26T06:25:14.940Z,8.87
2019-06-26T06:27:42.175Z,10.03
2019-06-26T06:30:10.514Z,10.70
2019-06-26T06:32:37.797Z,8.83
2019-06-26T06:35:06.279Z,9.70
2019-06-26T06:37:33.554Z,9.50
2019-06-26T06:40:00.808Z,9.47
2019-06-26T06:42:28.041Z,8.87
2019-06-26T06:44:55.257Z,8.83
2019-06-26T06:47:22.479Z,8.67
2019-06-26T06:49:49.696Z,8.90
2019-06-26T06:52:16.979Z,9.40
2019-06-26T06:54:44.221Z,8.20
2019-06-26T06:57:11.452Z,8.77
2019-06-26T06:59:38.674Z,7.40
2019-06-26T07:02:06.068Z,9.50
2019-06-26T07:04:33.284Z,9.33
2019-06-26T07:07:00.511Z,9.20
2019-06-26T07:09:27.755Z,8.27
2019-06-26T07:11:55.047Z,9.83
2019-06-26T07:14:22.312Z,9.53
2019-06-26T07:16:49.604Z,8.67
2019-06-26T07:19:16.892Z,9.10
2019-06-26T07:21:44.112Z,8.50
2019-06-26T07:24:11.331Z,9.17
2019-06-26T07:26:38.563Z,8.63
2019-06-26T07:29:05.864Z,8.20
2019-06-26T07:31:33.129Z,8.10
2019-06-26T07:34:00.358Z,8.27
2019-06-26T07:36:27.569Z,8.60
2019-06-26T07:38:54.803Z,7.60
2019-06-26T07:41:22.068Z,7.90
2019-06-26T07:43:49.359Z,8.50
2019-06-26T07:46:16.632Z,7.07
2019-06-26T07:48:43.859Z,7.13
2019-06-26T07:51:11.141Z,7.47
2019-06-26T07:53:38.397Z,6.83
2019-06-26T07:56:05.624Z,7.60
2019-06-26T07:58:32.853Z,6.53
2019-06-26T08:01:00.075Z,7.30
2019-06-26T08:03:27.372Z,8.93
2019-06-26T08:05:54.592Z,7.57
2019-06-26T08:08:21.835Z,7.73
2019-06-26T08:10:49.047Z,7.50
2019-06-26T08:13:16.277Z,6.90
2019-06-26T08:15:43.493Z,7.17
2019-06-26T08:18:10.716Z,8.33
2019-06-26T08:20:55.040Z,7.00
2019-06-26T08:23:07.250Z,7.37
2019-06-26T08:25:34.835Z,7.20
2019-06-26T08:28:02.069Z,7.47
2019-06-26T08:30:29.286Z,7.10
2019-06-26T08:32:56.512Z,6.73
2019-06-26T08:35:23.729Z,7.27
2019-06-26T08:37:50.958Z,8.23
2019-06-26T08:40:18.593Z,8.10
2019-06-26T08:42:45.815Z,7.53
2019-06-26T08:45:13.097Z,7.90
2019-06-26T08:47:40.332Z,7.27
2019-06-26T08:50:08.127Z,7.23
2019-06-26T08:52:35.526Z,7.40
2019-06-26T08:55:03.013Z,7.63
2019-06-26T08:57:30.232Z,7.97
2019-06-26T08:59:57.451Z,7.60
2019-06-26T09:02:24.680Z,7.43
2019-06-26T09:04:51.910Z,8.40
2019-06-26T09:07:19.124Z,7.93
2019-06-26T09:09:46.350Z,6.90
2019-06-26T09:12:13.563Z,7.13
2019-06-26T09:14:40.793Z,7.60
2019-06-26T09:17:08.279Z,8.20
2019-06-26T09:19:35.503Z,8.10
2019-06-26T09:22:02.726Z,7.80
2019-06-26T09:24:29.961Z,8.13
2019-06-26T09:26:57.181Z,7.27
2019-06-26T09:29:24.403Z,6.87
2019-06-26T09:31:51.621Z,8.50
2019-06-26T09:34:18.845Z,8.10
2019-06-26T09:36:46.399Z,7.83
2019-06-26T09:39:13.632Z,7.60
2019-06-26T09:41:40.855Z,8.50
2019-06-26T09:44:08.086Z,8.50
2019-06-26T09:46:35.300Z,7.70
2019-06-26T09:49:02.535Z,8.47
2019-06-26T09:51:29.774Z,7.90
2019-06-26T09:53:57.047Z,7.90
2019-06-26T09:56:24.265Z,7.93
2019-06-26T09:58:51.499Z,8.23
2019-06-26T10:01:18.716Z,6.93
2019-06-26T10:03:45.945Z,7.70
2019-06-26T10:06:13.179Z,7.40
2019-06-26T10:08:40.391Z,8.10
2019-06-26T10:11:07.695Z,7.37
2019-06-26T10:13:34.916Z,7.80
2019-06-26T10:16:02.138Z,6.47
2019-06-26T10:18:29.361Z,6.87
2019-06-26T10:20:56.588Z,8.43
2019-06-26T10:23:23.850Z,8.70
2019-06-26T10:25:51.115Z,7.87
2019-06-26T10:28:18.339Z,7.10
2019-06-26T10:30:45.571Z,7.80
2019-06-26T10:33:13.093Z,8.43
2019-06-26T10:35:40.307Z,7.27
2019-06-26T10:38:07.621Z,7.30
2019-06-26T10:40:34.908Z,7.10
2019-06-26T10:43:02.125Z,6.87
2019-06-26T10:45:29.502Z,8.30
2019-06-26T10:47:56.753Z,6.97
2019-06-26T10:50:23.977Z,6.70
2019-06-26T10:52:51.195Z,7.07
2019-06-26T10:55:18.412Z,7.63
2019-06-26T10:57:45.628Z,7.70
2019-06-26T11:00:14.626Z,7.77
2019-06-26T11:02:41.894Z,7.60
2019-06-26T11:05:09.523Z,7.77
2019-06-26T11:07:36.809Z,7.80
2019-06-26T11:10:07.728Z,6.57
2019-06-26T11:12:34.939Z,6.33
2019-06-26T11:15:02.230Z,6.07
2019-06-26T11:17:29.469Z,6.60
2019-06-26T11:19:56.697Z,7.50
2019-06-26T11:22:23.905Z,6.90
2019-06-26T11:24:51.131Z,7.37
2019-06-26T11:27:18.397Z,6.80
2019-06-26T11:29:45.612Z,6.80
2019-06-26T11:32:12.839Z,7.37
2019-06-26T11:34:40.048Z,6.57
2019-06-26T11:37:07.283Z,7.30
2019-06-26T11:39:34.509Z,6.83
2019-06-26T11:42:01.748Z,6.17
2019-06-26T11:44:28.967Z,6.47
2019-06-26T11:46:56.200Z,6.23
2019-06-26T11:49:23.417Z,5.90
2019-06-26T11:51:50.706Z,6.37
2019-06-26T11:54:17.957Z,6.30
2019-06-26T11:56:45.184Z,5.87
2019-06-26T11:59:12.399Z,6.43
2019-06-26T12:01:39.642Z,5.07
2019-06-26T12:04:06.846Z,6.00
2019-06-26T12:06:34.057Z,5.10
2019-06-26T12:09:01.272Z,5.30
2019-06-26T12:11:28.496Z,4.83
2019-06-26T12:13:55.717Z,5.10
2019-06-26T12:16:22.936Z,5.53
2019-06-26T12:18:50.233Z,5.13
2019-06-26T12:21:17.454Z,4.77
2019-06-26T12:23:44.665Z,5.17
2019-06-26T12:26:11.888Z,5.50
2019-06-26T12:28:39.131Z,5.50
2019-06-26T12:31:06.427Z,6.17
2019-06-26T12:33:33.645Z,5.33
2019-06-26T12:36:00.877Z,5.40
2019-06-26T12:38:28.089Z,5.00
2019-06-26T12:40:55.331Z,7.00
2019-06-26T12:43:22.558Z,5.77
2019-06-26T12:45:49.830Z,5.90
2019-06-26T12:48:17.061Z,6.20
2019-06-26T12:50:44.276Z,6.10
2019-06-26T12:53:11.511Z,5.47
2019-06-26T12:55:38.716Z,5.93
2019-06-26T12:58:13.126Z,5.00
2019-06-26T13:00:34.898Z,5.43
2019-06-26T13:03:02.117Z,5.20
2019-06-26T13:05:29.348Z,4.40
2019-06-26T13:07:56.576Z,5.00
2019-06-26T13:10:23.796Z,5.60
2019-06-26T13:12:51.037Z,5.80
2019-06-26T13:15:18.524Z,4.57
2019-06-26T13:17:45.749Z,6.70
2019-06-26T13:20:14.228Z,5.67
2019-06-26T13:22:41.570Z,5.73
2019-06-26T13:25:08.889Z,6.00
2019-06-26T13:27:36.142Z,5.67
2019-06-26T13:30:05.030Z,6.30
2019-06-26T13:32:32.253Z,4.97
2019-06-26T13:34:59.483Z,5.80
2019-06-26T13:37:26.703Z,5.63
2019-06-26T13:39:53.929Z,4.83
2019-06-26T13:42:21.152Z,4.90
2019-06-26T13:44:48.374Z,5.40
2019-06-26T13:47:15.864Z,6.43
2019-06-26T13:49:43.075Z,5.43
2019-06-26T13:52:10.308Z,6.00
2019-06-26T13:54:37.520Z,5.43
2019-06-26T13:57:04.744Z,5.77
2019-06-26T13:59:31.964Z,6.93
2019-06-26T14:01:59.197Z,5.80
2019-06-26T14:04:26.414Z,6.47
2019-06-26T14:06:53.632Z,5.67
2019-06-26T14:09:20.862Z,6.50
2019-06-26T14:11:48.084Z,5.80
2019-06-26T14:14:15.300Z,6.00
2019-06-26T14:16:42.588Z,5.80
2019-06-26T14:19:09.807Z,5.97
2019-06-26T14:21:37.043Z,6.60
2019-06-26T14:24:04.271Z,6.17
2019-06-26T14:26:31.517Z,6.80
2019-06-26T14:28:58.784Z,6.77
2019-06-26T14:31:26.022Z,7.43
2019-06-26T14:33:53.272Z,6.00
2019-06-26T14:36:23.271Z,5.87
2019-06-26T14:38:49.458Z,6.10
2019-06-26T14:41:16.740Z,6.00
2019-06-26T14:43:43.991Z,6.20
2019-06-26T14:46:11.202Z,6.80
2019-06-26T14:48:38.476Z,6.37
2019-06-26T14:51:05.723Z,7.00
2019-06-26T14:53:32.999Z,6.50
2019-06-26T14:56:00.226Z,6.40
2019-06-26T14:58:27.487Z,6.67
2019-06-26T15:00:54.704Z,7.23
2019-06-26T15:03:21.951Z,7.57
2019-06-26T15:05:49.166Z,6.73
2019-06-26T15:08:16.388Z,7.83
2019-06-26T15:10:43.597Z,7.20
2019-06-26T15:13:10.827Z,7.07
2019-06-26T15:15:38.045Z,6.80
2019-06-26T15:18:05.277Z,6.80
2019-06-26T15:20:32.540Z,7.43
2019-06-26T15:22:59.847Z,6.70
2019-06-26T15:25:27.068Z,6.63
2019-06-26T15:27:54.300Z,7.10
2019-06-26T15:30:21.747Z,7.10
2019-06-26T15:32:48.989Z,6.17
2019-06-26T15:35:16.476Z,7.23
2019-06-26T15:37:44.808Z,6.60
2019-06-26T15:40:13.932Z,7.40
2019-06-26T15:42:41.164Z,7.17
2019-06-26T15:45:08.811Z,6.37
2019-06-26T15:47:36.029Z,7.43
2019-06-26T15:50:04.861Z,6.77
2019-06-26T15:52:32.088Z,6.93
2019-06-26T15:54:59.339Z,7.10
2019-06-26T15:57:26.609Z,7.93
2019-06-26T15:59:53.864Z,6.70
2019-06-26T16:02:21.084Z,6.67
2019-06-26T16:04:49.501Z,7.00
2019-06-26T16:07:16.769Z,6.90
2019-06-26T16:09:43.999Z,8.17
2019-06-26T16:12:11.213Z,7.40
2019-06-26T16:14:38.435Z,7.47
2019-06-26T16:17:07.307Z,7.07
2019-06-26T16:19:34.541Z,7.53
2019-06-26T16:22:01.779Z,6.53
2019-06-26T16:24:30.226Z,7.53
2019-06-26T16:26:57.611Z,7.00
2019-06-26T16:29:24.908Z,7.73
2019-06-26T16:31:52.155Z,6.73
2019-06-26T16:34:19.429Z,7.97
2019-06-26T16:36:46.803Z,6.87
2019-06-26T16:39:14.098Z,7.70
2019-06-26T16:41:41.315Z,7.20
2019-06-26T16:44:08.546Z,7.63
2019-06-26T16:46:35.773Z,7.47
2019-06-26T16:49:02.995Z,7.57
2019-06-26T16:51:30.241Z,7.97
2019-06-26T16:53:57.456Z,7.00
2019-06-26T16:56:24.775Z,7.53
2019-06-26T16:58:52.098Z,7.70
2019-06-26T17:01:19.404Z,7.13
2019-06-26T17:03:46.613Z,7.60
2019-06-26T17:06:13.880Z,6.20
2019-06-26T17:08:41.097Z,7.30
2019-06-26T17:11:08.336Z,7.00
2019-06-26T17:13:35.562Z,7.80
2019-06-26T17:16:02.789Z,6.87
2019-06-26T17:18:30.009Z,7.10
2019-06-26T17:20:57.232Z,6.80
2019-06-26T17:23:24.465Z,7.30
2019-06-26T17:25:51.689Z,7.23
2019-06-26T17:28:18.907Z,8.37
2019-06-26T17:30:46.136Z,7.60
2019-06-26T17:33:13.359Z,7.23
2019-06-26T17:35:40.577Z,8.00
2019-06-26T17:38:07.798Z,8.20
2019-06-26T17:40:35.058Z,7.43
2019-06-26T17:43:11.750Z,7.23
2019-06-26T17:45:31.283Z,7.57
2019-06-26T17:47:58.500Z,7.40
2019-06-26T17:50:25.732Z,8.80
2019-06-26T17:52:52.980Z,10.10
2019-06-26T17:55:20.225Z,8.60
2019-06-26T17:57:47.789Z,8.93
2019-06-26T18:00:15.288Z,8.93
2019-06-26T18:02:42.624Z,8.70
2019-06-26T18:05:09.925Z,9.53
2019-06-26T18:07:37.182Z,8.40
2019-06-26T18:10:05.139Z,8.27
2019-06-26T18:12:32.550Z,6.60
2019-06-26T18:14:59.848Z,8.10
2019-06-26T18:17:27.061Z,8.67
2019-06-26T18:19:54.292Z,8.60
2019-06-26T18:22:21.524Z,7.93
2019-06-26T18:24:48.735Z,8.90
2019-06-26T18:27:15.968Z,8.83
2019-06-26T18:29:43.192Z,8.00
2019-06-26T18:32:10.415Z,8.60
2019-06-26T18:34:37.640Z,8.53
2019-06-26T18:37:04.867Z,7.67
2019-06-26T18:39:32.088Z,6.90
2019-06-26T18:41:59.320Z,8.63
2019-06-26T18:44:26.622Z,8.40
2019-06-26T18:46:53.937Z,7.73
2019-06-26T18:49:21.157Z,8.83
2019-06-26T18:51:48.392Z,8.30
2019-06-26T18:54:15.608Z,8.40
2019-06-26T18:56:42.835Z,8.43
2019-06-26T18:59:10.083Z,7.50
2019-06-26T19:01:37.320Z,7.90
2019-06-26T19:04:04.538Z,9.50
2019-06-26T19:06:31.766Z,6.50
2019-06-26T19:08:58.987Z,6.60
2019-06-26T19:11:26.216Z,8.27
2019-06-26T19:13:53.439Z,8.00
2019-06-26T19:16:20.994Z,6.40
2019-06-26T19:18:48.221Z,7.73
2019-06-26T19:21:15.453Z,7.30
2019-06-26T19:23:42.705Z,7.57
2019-06-26T19:26:09.963Z,8.57
2019-06-26T19:28:37.195Z,8.97
2019-06-26T19:31:04.407Z,9.30
2019-06-26T19:33:31.632Z,8.20
2019-06-26T19:35:58.851Z,7.53
2019-06-26T19:38:26.316Z,8.43
2019-06-26T19:40:53.536Z,8.10
2019-06-26T19:43:20.768Z,8.70
2019-06-26T19:45:47.988Z,8.70
2019-06-26T19:48:15.225Z,9.40
2019-06-26T19:50:42.487Z,9.33
2019-06-26T19:53:09.711Z,8.10
2019-06-26T19:55:36.929Z,8.30
2019-06-26T19:58:04.166Z,8.20
2019-06-26T20:00:31.388Z,9.27
2019-06-26T20:02:58.626Z,8.30
2019-06-26T20:05:25.923Z,8.70
2019-06-26T20:07:53.166Z,10.17
2019-06-26T20:10:20.467Z,9.60
2019-06-26T20:12:47.691Z,9.60
2019-06-26T20:15:14.981Z,9.63
2019-06-26T20:17:42.211Z,10.00
2019-06-26T20:20:11.222Z,10.00
2019-06-26T20:22:38.466Z,10.67
2019-06-26T20:25:07.255Z,10.97
2019-06-26T20:27:34.481Z,12.20
2019-06-26T20:30:01.703Z,11.80
2019-06-26T20:32:29.016Z,11.13
2019-06-26T20:34:56.234Z,11.47
2019-06-26T20:37:23.465Z,11.07
2019-06-26T20:39:50.691Z,12.27
2019-06-26T20:42:17.932Z,12.03
2019-06-26T20:44:45.197Z,12.07
2019-06-26T20:47:12.507Z,12.17
2019-06-26T20:49:52.581Z,11.70
2019-06-26T20:52:08.708Z,12.13
2019-06-26T20:54:35.996Z,13.00
2019-06-26T20:57:04.783Z,14.27
2019-06-26T20:59:32.016Z,11.80
2019-06-26T21:01:59.251Z,10.83
2019-06-26T21:04:26.488Z,11.63
2019-06-26T21:06:53.708Z,12.37
2019-06-26T21:09:20.958Z,11.17
2019-06-26T21:11:48.172Z,12.47
2019-06-26T21:14:15.402Z,12.30
2019-06-26T21:16:42.653Z,11.27
2019-06-26T21:19:09.893Z,12.70
2019-06-26T21:21:37.150Z,11.63
2019-06-26T21:24:04.394Z,12.97
2019-06-26T21:26:31.811Z,12.83
2019-06-26T21:29:00.841Z,12.43
2019-06-26T21:31:28.065Z,12.83
2019-06-26T21:33:55.301Z,13.30
2019-06-26T21:36:22.605Z,14.63
2019-06-26T21:38:49.844Z,15.70
2019-06-26T21:41:17.099Z,13.20
2019-06-26T21:43:44.388Z,14.53
2019-06-26T21:46:11.751Z,14.40
2019-06-26T21:48:39.010Z,13.37
2019-06-26T21:51:06.365Z,13.60
2019-06-26T21:53:33.695Z,13.13
2019-06-26T21:56:00.907Z,13.17
2019-06-26T21:58:28.149Z,14.17
2019-06-26T22:00:55.459Z,11.80
2019-06-26T22:03:22.696Z,13.30
2019-06-26T22:05:49.998Z,13.30
2019-06-26T22:08:17.294Z,11.60
2019-06-26T22:10:44.523Z,13.17
2019-06-26T22:13:12.068Z,13.27
2019-06-26T22:15:39.365Z,12.20
2019-06-26T22:18:06.624Z,12.03
2019-06-26T22:20:33.853Z,12.87
2019-06-26T22:23:01.076Z,13.93
2019-06-26T22:25:28.338Z,12.40
2019-06-26T22:27:55.641Z,13.00
2019-06-26T22:30:23.053Z,12.07
2019-06-26T22:32:50.293Z,14.30
2019-06-26T22:35:17.625Z,13.90
2019-06-26T22:37:44.860Z,14.93
2019-06-26T22:40:12.580Z,13.57
2019-06-26T22:42:39.813Z,14.80
2019-06-26T22:45:07.460Z,14.57
2019-06-26T22:47:34.739Z,13.60
2019-06-26T22:50:02.022Z,13.83
2019-06-26T22:52:29.550Z,13.87
2019-06-26T22:54:56.810Z,11.87
2019-06-26T22:57:24.049Z,13.53
2019-06-26T22:59:51.353Z,12.80
2019-06-26T23:02:18.716Z,14.30
2019-06-26T23:04:45.990Z,13.70
2019-06-26T23:07:13.217Z,14.20
2019-06-26T23:09:40.451Z,15.33
2019-06-26T23:12:08.102Z,14.60
2019-06-26T23:14:35.415Z,13.93
2019-06-26T23:17:02.874Z,14.97
2019-06-26T23:19:30.390Z,15.97
2019-06-26T23:21:57.649Z,15.40
2019-06-26T23:24:24.922Z,14.50
2019-06-26T23:26:52.290Z,15.20
2019-06-26T23:29:19.558Z,14.10
2019-06-26T23:31:46.845Z,13.97
2019-06-26T23:34:14.199Z,14.57
2019-06-26T23:36:41.458Z,13.93
2019-06-26T23:39:08.753Z,14.80
2019-06-26T23:41:36.066Z,15.43
2019-06-26T23:44:03.320Z,15.03
2019-06-26T23:46:30.624Z,14.00
2019-06-26T23:48:57.910Z,14.23
2019-06-26T23:51:25.197Z,13.97
2019-06-26T23:53:52.530Z,14.73
2019-06-26T23:56:19.815Z,13.60
2019-06-26T23:58:47.064Z,15.70
